Time;durP1;ratioP1;P1;durP2;ratioP2;P2;SDS_P1;SDS_P2;PMS_P1;PMS_P2;Temp;Humidity;BMP_temperature;BMP_pressure;BME280_temperature;BME280_humidity;BME280_pressure;Samples;Min_cycle;Max_cycle;Signal;HPM_P1;HPM_P2
2023/04/21 00:02:08;;;;;;;13.93;10.23;;;8.70;99.90;;;;;;5017409;28;20080;-86
2023/04/21 00:04:34;;;;;;;16.83;10.75;;;8.70;99.90;;;;;;5015247;28;20490;-87
2023/04/21 00:07:02;;;;;;;15.65;11.13;;;8.70;99.90;;;;;;5018321;28;20064;-85
2023/04/21 00:09:27;;;;;;;16.02;11.40;;;8.70;99.90;;;;;;5020400;28;20033;-85
2023/04/21 00:11:55;;;;;;;14.30;10.82;;;8.60;99.90;;;;;;5019078;28;20024;-84
2023/04/21 00:14:20;;;;;;;15.82;10.65;;;8.60;99.90;;;;;;5017981;28;20079;-85
2023/04/21 00:16:51;;;;;;;14.18;9.85;;;8.60;99.90;;;;;;5018440;28;20022;-85
2023/04/21 00:19:18;;;;;;;16.02;11.18;;;8.60;99.90;;;;;;5021835;28;20029;-86
2023/04/21 00:21:44;;;;;;;16.38;11.30;;;8.60;99.90;;;;;;5026930;28;20465;-86
2023/04/21 00:24:10;;;;;;;16.08;11.35;;;8.60;99.90;;;;;;5019067;28;20578;-86
2023/04/21 00:26:36;;;;;;;16.15;10.95;;;8.60;99.90;;;;;;5022585;28;20140;-86
2023/04/21 00:29:02;;;;;;;16.67;11.30;;;8.60;99.90;;;;;;5023680;28;20045;-85
2023/04/21 00:31:30;;;;;;;17.13;11.13;;;8.60;99.90;;;;;;5018849;28;20033;-86
2023/04/21 00:33:55;;;;;;;15.75;11.20;;;8.60;99.90;;;;;;5023446;28;20025;-86
2023/04/21 00:36:23;;;;;;;16.00;11.52;;;8.60;99.90;;;;;;5023766;28;20018;-88
2023/04/21 00:38:49;;;;;;;17.83;11.75;;;8.60;99.90;;;;;;5022006;28;20029;-85
2023/04/21 00:41:15;;;;;;;17.95;13.27;;;8.60;99.90;;;;;;5021229;28;20060;-87
2023/04/21 00:43:59;;;;;;;17.02;12.07;;;8.60;99.90;;;;;;5021429;28;20065;-85
2023/04/21 00:46:25;;;;;;;15.55;11.48;;;8.50;99.90;;;;;;5015370;28;20067;-87
2023/04/21 00:48:51;;;;;;;17.33;12.45;;;8.60;99.90;;;;;;5017675;28;20577;-85
2023/04/21 00:51:16;;;;;;;16.75;12.52;;;8.50;99.90;;;;;;5019048;28;20609;-86
2023/04/21 00:53:43;;;;;;;17.50;12.40;;;8.50;99.90;;;;;;5021112;28;20045;-87
2023/04/21 00:56:09;;;;;;;17.85;12.57;;;8.50;99.90;;;;;;5021268;28;20022;-87
2023/04/21 00:58:40;;;;;;;16.52;11.20;;;8.50;99.90;;;;;;5017405;28;20062;-86
2023/04/21 01:01:07;;;;;;;17.73;12.07;;;8.60;99.90;;;;;;5021441;28;20037;-86
2023/04/21 01:03:34;;;;;;;16.00;10.82;;;8.50;99.90;;;;;;5005120;28;20375;-87
2023/04/21 01:06:00;;;;;;;17.50;11.38;;;8.50;99.90;;;;;;5020411;28;20030;-88
2023/04/21 01:08:31;;;;;;;14.57;10.65;;;8.50;99.90;;;;;;5022462;28;20026;-88
2023/04/21 01:10:57;;;;;;;17.40;12.77;;;8.50;99.90;;;;;;5018773;28;20033;-88
2023/04/21 01:13:23;;;;;;;14.57;10.93;;;8.50;99.90;;;;;;5019414;28;20034;-88
2023/04/21 01:15:49;;;;;;;15.00;10.23;;;8.50;99.90;;;;;;5021109;28;20037;-88
2023/04/21 01:18:17;;;;;;;14.52;10.43;;;8.50;99.90;;;;;;5021920;28;20089;-88
2023/04/21 01:20:44;;;;;;;13.90;9.88;;;8.50;99.90;;;;;;5022174;28;20037;-88
2023/04/21 01:23:11;;;;;;;16.52;10.75;;;8.50;99.90;;;;;;5021173;28;20073;-87
2023/04/21 01:25:37;;;;;;;14.27;9.85;;;8.50;99.90;;;;;;5021379;28;20544;-87
2023/04/21 01:28:03;;;;;;;15.25;10.25;;;8.50;99.90;;;;;;5023006;28;20025;-87
2023/04/21 01:30:28;;;;;;;13.98;9.75;;;8.50;99.90;;;;;;5017534;28;20488;-87
2023/04/21 01:32:54;;;;;;;12.93;9.23;;;8.50;99.90;;;;;;5020794;28;20017;-86
2023/04/21 01:35:20;;;;;;;14.02;9.43;;;8.50;99.90;;;;;;5023016;28;20034;-87
2023/04/21 01:37:45;;;;;;;13.90;9.35;;;8.50;99.90;;;;;;5020809;28;20048;-86
2023/04/21 01:40:15;;;;;;;12.70;9.50;;;8.50;99.90;;;;;;5022793;28;20026;-87
2023/04/21 01:42:42;;;;;;;13.85;9.55;;;8.50;99.90;;;;;;5021860;28;20595;-87
2023/04/21 01:45:09;;;;;;;15.60;10.45;;;8.50;99.90;;;;;;5018765;28;20029;-87
2023/04/21 01:47:34;;;;;;;15.80;10.63;;;8.50;99.90;;;;;;5025372;28;20552;-88
2023/04/21 01:50:00;;;;;;;15.40;10.05;;;8.60;99.90;;;;;;5033213;28;20037;-87
2023/04/21 01:52:26;;;;;;;12.85;8.98;;;8.50;99.90;;;;;;5027127;28;20081;-87
2023/04/21 01:54:51;;;;;;;15.93;10.45;;;8.50;99.90;;;;;;5024055;28;20096;-87
2023/04/21 01:57:17;;;;;;;13.20;9.70;;;8.60;99.90;;;;;;5024039;28;20032;-88
2023/04/21 01:59:44;;;;;;;13.60;9.68;;;8.60;99.90;;;;;;5024097;28;20035;-87
2023/04/21 02:02:10;;;;;;;13.50;9.32;;;8.60;99.90;;;;;;5026967;28;20032;-87
2023/04/21 02:04:35;;;;;;;14.65;10.10;;;8.60;99.90;;;;;;5024325;28;20475;-88
2023/04/21 02:07:01;;;;;;;13.77;9.82;;;8.60;99.90;;;;;;5032754;28;20030;-88
2023/04/21 02:09:30;;;;;;;13.27;9.63;;;8.60;99.90;;;;;;5025319;28;20103;-88
2023/04/21 02:11:56;;;;;;;16.17;11.10;;;8.60;99.90;;;;;;5027123;28;20484;-88
2023/04/21 02:14:22;;;;;;;16.58;11.23;;;8.60;99.90;;;;;;5028617;28;20439;-88
2023/04/21 02:16:56;;;;;;;15.23;10.52;;;8.60;99.90;;;;;;5026069;28;20018;-88
2023/04/21 02:19:22;;;;;;;12.48;8.80;;;8.50;99.90;;;;;;5020553;28;20083;-88
2023/04/21 02:21:47;;;;;;;13.48;9.90;;;8.50;99.90;;;;;;5018740;28;20026;-89
2023/04/21 02:24:13;;;;;;;15.43;10.20;;;8.50;99.90;;;;;;5029048;28;20445;-88
2023/04/21 02:26:40;;;;;;;11.70;9.15;;;8.50;99.90;;;;;;5025862;28;20030;-88
2023/04/21 02:29:06;;;;;;;13.23;9.80;;;8.50;99.90;;;;;;5030207;28;20117;-87
2023/04/21 02:31:31;;;;;;;11.90;9.02;;;8.50;99.90;;;;;;5024118;28;20100;-88
2023/04/21 02:33:57;;;;;;;11.60;8.40;;;8.50;99.90;;;;;;5028592;28;20026;-88
2023/04/21 02:36:23;;;;;;;12.85;9.20;;;8.50;99.90;;;;;;5023890;28;20035;-89
2023/04/21 02:38:50;;;;;;;14.05;9.77;;;8.50;99.90;;;;;;5025674;28;20033;-88
2023/04/21 02:41:15;;;;;;;13.02;9.32;;;8.50;99.90;;;;;;5023995;28;20120;-90
2023/04/21 02:43:41;;;;;;;12.35;9.23;;;8.50;99.90;;;;;;5023827;28;20471;-87
2023/04/21 02:46:07;;;;;;;12.50;8.98;;;8.50;99.90;;;;;;5025766;28;20029;-88
2023/04/21 02:48:33;;;;;;;12.65;9.10;;;8.50;99.90;;;;;;5027282;28;20018;-88
2023/04/21 02:50:59;;;;;;;11.55;8.80;;;8.50;99.90;;;;;;5026887;28;20032;-88
2023/04/21 02:53:25;;;;;;;13.15;9.80;;;8.50;99.90;;;;;;5025943;28;20026;-87
2023/04/21 02:55:50;;;;;;;14.30;9.77;;;8.50;99.90;;;;;;5028897;28;20030;-88
2023/04/21 02:58:16;;;;;;;12.88;9.77;;;8.50;99.90;;;;;;5024033;28;20366;-88
2023/04/21 03:00:42;;;;;;;13.18;10.05;;;8.50;99.90;;;;;;5026877;28;20029;-88
2023/04/21 03:03:08;;;;;;;13.20;9.52;;;8.50;99.90;;;;;;5028543;28;20131;-88
2023/04/21 03:05:33;;;;;;;11.88;8.50;;;8.50;99.90;;;;;;5024225;28;20034;-88
2023/04/21 03:07:59;;;;;;;13.27;9.80;;;8.50;99.90;;;;;;5028538;28;20034;-88
2023/04/21 03:10:25;;;;;;;12.38;9.25;;;8.50;99.90;;;;;;5025001;28;20115;-88
2023/04/21 03:12:51;;;;;;;13.63;10.40;;;8.50;99.90;;;;;;5020955;28;20470;-87
2023/04/21 03:15:16;;;;;;;13.73;10.10;;;8.50;99.90;;;;;;5021375;28;20052;-88
2023/04/21 03:17:42;;;;;;;14.07;10.23;;;8.50;99.90;;;;;;5025135;28;20034;-89
2023/04/21 03:20:10;;;;;;;16.00;11.32;;;8.50;99.90;;;;;;5022421;28;20026;-88
2023/04/21 03:22:36;;;;;;;16.38;12.00;;;8.50;99.90;;;;;;5022842;28;20050;-89
2023/04/21 03:25:03;;;;;;;15.57;11.98;;;8.50;99.90;;;;;;5023287;28;20048;-89
2023/04/21 03:27:29;;;;;;;16.90;12.15;;;8.50;99.90;;;;;;5020385;28;20101;-88
2023/04/21 03:29:54;;;;;;;15.88;11.95;;;8.50;99.90;;;;;;5021281;28;20026;-88
2023/04/21 03:32:20;;;;;;;15.73;11.48;;;8.40;99.90;;;;;;5022197;28;20100;-88
2023/04/21 03:34:46;;;;;;;15.75;11.63;;;8.50;99.90;;;;;;5023444;28;20085;-88
2023/04/21 03:37:12;;;;;;;17.10;12.50;;;8.50;99.90;;;;;;5003072;28;20033;-88
2023/04/21 03:39:37;;;;;;;15.07;11.68;;;8.40;99.90;;;;;;5024592;28;20034;-88
2023/04/21 03:42:03;;;;;;;14.68;10.80;;;8.40;99.90;;;;;;5024152;28;20029;-87
2023/04/21 03:44:29;;;;;;;14.95;10.93;;;8.40;99.90;;;;;;5021194;28;20034;-88
2023/04/21 03:46:56;;;;;;;16.08;12.13;;;8.40;99.90;;;;;;5022356;28;20156;-87
2023/04/21 03:49:24;;;;;;;16.60;11.90;;;8.50;99.90;;;;;;5022012;28;20908;-87
2023/04/21 03:51:50;;;;;;;14.65;11.73;;;8.40;99.90;;;;;;5021136;28;20171;-87
2023/04/21 03:54:16;;;;;;;15.88;11.00;;;8.50;99.90;;;;;;5022327;28;20093;-87
2023/04/21 03:56:42;;;;;;;14.88;11.27;;;8.50;99.90;;;;;;5021237;28;20483;-87
2023/04/21 03:59:07;;;;;;;16.05;11.77;;;8.50;99.90;;;;;;5024081;28;20143;-86
2023/04/21 04:01:34;;;;;;;16.23;12.35;;;8.50;99.90;;;;;;5021364;28;20500;-88
2023/04/21 04:04:00;;;;;;;15.88;12.25;;;8.50;99.90;;;;;;5020063;28;20111;-89
2023/04/21 04:06:25;;;;;;;16.17;12.10;;;8.50;99.90;;;;;;5023316;28;20068;-87
2023/04/21 04:08:51;;;;;;;16.60;12.38;;;8.50;99.90;;;;;;5020398;28;20516;-86
2023/04/21 04:11:16;;;;;;;18.48;13.85;;;8.50;99.90;;;;;;5016479;28;20037;-86
2023/04/21 04:13:42;;;;;;;18.42;14.50;;;8.50;99.90;;;;;;5021184;28;20034;-87
2023/04/21 04:16:09;;;;;;;18.15;14.05;;;8.50;99.90;;;;;;5019458;28;20033;-87
2023/04/21 04:18:35;;;;;;;19.52;14.98;;;8.50;99.90;;;;;;5022459;28;20045;-87
2023/04/21 04:21:07;;;;;;;18.02;13.88;;;8.50;99.90;;;;;;5024447;28;20017;-87
2023/04/21 04:23:33;;;;;;;16.30;12.45;;;8.60;99.90;;;;;;5016624;28;20053;-87
2023/04/21 04:26:00;;;;;;;18.30;13.80;;;8.60;99.90;;;;;;5021376;28;20034;-87
2023/04/21 04:28:26;;;;;;;18.27;13.70;;;8.60;99.90;;;;;;5018859;28;20470;-87
2023/04/21 04:30:52;;;;;;;19.95;14.10;;;8.50;99.90;;;;;;5018890;28;20101;-88
2023/04/21 04:33:17;;;;;;;18.42;14.13;;;8.60;99.90;;;;;;5016646;28;20446;-86
2023/04/21 04:35:43;;;;;;;18.75;14.75;;;8.60;99.90;;;;;;5024448;28;20514;-88
2023/04/21 04:38:09;;;;;;;16.90;12.48;;;8.60;99.90;;;;;;5023004;28;20374;-88
2023/04/21 04:40:34;;;;;;;16.77;12.77;;;8.60;99.90;;;;;;5017401;28;20025;-87
2023/04/21 04:43:01;;;;;;;19.98;14.43;;;8.60;99.90;;;;;;5020930;28;20084;-87
2023/04/21 04:45:28;;;;;;;17.95;13.18;;;8.60;99.90;;;;;;5018250;28;20033;-87
2023/04/21 04:47:54;;;;;;;17.83;13.27;;;8.60;99.90;;;;;;5019908;28;20022;-86
2023/04/21 04:50:20;;;;;;;18.63;13.77;;;8.50;99.90;;;;;;5021571;28;22435;-86
2023/04/21 04:52:46;;;;;;;19.08;13.90;;;8.50;99.90;;;;;;5023478;28;20129;-86
2023/04/21 04:55:13;;;;;;;23.52;16.98;;;8.50;99.90;;;;;;5023420;28;20097;-88
2023/04/21 04:57:38;;;;;;;20.42;15.40;;;8.50;99.90;;;;;;5019353;28;20078;-86
2023/04/21 05:00:09;;;;;;;19.20;15.20;;;8.50;99.90;;;;;;5019732;28;20030;-87
2023/04/21 05:02:39;;;;;;;18.95;14.13;;;8.50;99.90;;;;;;5024028;28;20033;-87
2023/04/21 05:05:06;;;;;;;18.23;14.32;;;8.50;99.90;;;;;;5017366;28;20033;-86
2023/04/21 05:07:33;;;;;;;20.02;15.30;;;8.50;99.90;;;;;;5020372;28;20021;-91
2023/04/21 05:09:59;;;;;;;19.83;15.27;;;8.60;99.90;;;;;;5020436;28;20029;-86
2023/04/21 05:12:25;;;;;;;19.08;14.55;;;8.60;99.90;;;;;;5021239;28;20045;-85
2023/04/21 05:14:51;;;;;;;19.55;14.90;;;8.60;99.90;;;;;;5020797;28;20474;-88
2023/04/21 05:17:16;;;;;;;22.30;16.38;;;8.60;99.90;;;;;;5020677;28;20029;-85
2023/04/21 05:19:42;;;;;;;20.42;16.20;;;8.70;99.90;;;;;;5022209;28;20030;-88
2023/04/21 05:22:07;;;;;;;21.13;16.00;;;8.70;99.90;;;;;;5021526;28;20032;-87
2023/04/21 05:24:36;;;;;;;20.50;14.70;;;8.70;99.90;;;;;;5022690;28;20413;-87
2023/04/21 05:27:02;;;;;;;21.55;15.43;;;8.70;99.90;;;;;;5021515;28;20210;-87
2023/04/21 05:29:28;;;;;;;17.70;13.75;;;8.70;99.90;;;;;;5021730;28;20042;-86
2023/04/21 05:31:54;;;;;;;17.77;12.98;;;8.70;99.90;;;;;;5020132;28;20021;-88
2023/04/21 05:34:21;;;;;;;18.35;14.00;;;8.80;99.90;;;;;;5023478;28;20088;-88
2023/04/21 05:36:48;;;;;;;18.67;14.13;;;8.80;99.90;;;;;;5022573;28;22324;-88
2023/04/21 05:39:14;;;;;;;19.70;15.05;;;8.80;99.90;;;;;;5018483;28;20060;-87
2023/04/21 05:41:41;;;;;;;23.30;16.67;;;8.80;99.90;;;;;;5024766;28;20152;-88
2023/04/21 05:44:06;;;;;;;22.25;16.27;;;8.90;99.90;;;;;;5022820;28;20080;-88
2023/04/21 05:46:33;;;;;;;22.23;15.50;;;8.80;99.90;;;;;;5024535;28;20021;-87
2023/04/21 05:49:01;;;;;;;20.20;15.23;;;8.80;99.90;;;;;;5020715;28;20026;-88
2023/04/21 05:51:26;;;;;;;18.95;14.63;;;8.90;99.90;;;;;;5022716;28;20038;-86
2023/04/21 05:53:53;;;;;;;21.83;16.38;;;8.90;99.90;;;;;;5023225;28;20402;-87
2023/04/21 05:56:20;;;;;;;21.35;16.23;;;8.90;99.90;;;;;;5020960;28;20105;-88
2023/04/21 05:58:49;;;;;;;20.35;14.30;;;8.90;99.90;;;;;;5021137;28;20464;-88
2023/04/21 06:01:19;;;;;;;19.42;14.48;;;8.90;99.90;;;;;;5020562;28;20033;-87
2023/04/21 06:03:47;;;;;;;20.13;15.02;;;9.00;99.90;;;;;;5021079;28;20034;-87
2023/04/21 06:06:13;;;;;;;17.08;13.65;;;9.00;99.90;;;;;;5023492;28;20036;-88
2023/04/21 06:08:39;;;;;;;17.45;12.98;;;9.10;99.90;;;;;;5020704;28;20026;-88
2023/04/21 06:11:05;;;;;;;17.80;13.88;;;9.10;99.90;;;;;;5026958;28;20108;-86
2023/04/21 06:13:32;;;;;;;18.67;14.25;;;9.10;99.90;;;;;;5025697;28;20039;-87
2023/04/21 06:15:59;;;;;;;20.00;14.20;;;9.20;99.90;;;;;;5024940;28;20029;-87
2023/04/21 06:18:28;;;;;;;18.73;14.43;;;9.20;99.90;;;;;;5024086;28;20029;-86
2023/04/21 06:20:54;;;;;;;18.25;14.50;;;9.20;99.90;;;;;;5022630;28;20077;-86
2023/04/21 06:23:20;;;;;;;18.90;14.10;;;9.30;99.90;;;;;;5021072;28;20045;-87
2023/04/21 06:25:47;;;;;;;18.40;14.07;;;9.30;99.90;;;;;;5024285;28;20092;-87
2023/04/21 06:28:12;;;;;;;18.45;14.45;;;9.30;99.90;;;;;;5023571;28;20033;-87
2023/04/21 06:30:41;;;;;;;18.80;13.90;;;9.30;99.90;;;;;;5019889;28;20045;-87
2023/04/21 06:33:08;;;;;;;19.27;14.48;;;9.30;99.90;;;;;;5022365;28;20037;-86
2023/04/21 06:35:36;;;;;;;16.67;13.07;;;9.30;99.90;;;;;;5020314;28;20026;-87
2023/04/21 06:38:02;;;;;;;21.48;15.98;;;9.30;99.90;;;;;;5018909;28;20355;-87
2023/04/21 06:40:27;;;;;;;19.02;13.82;;;9.40;99.90;;;;;;5020576;28;20032;-86
2023/04/21 06:42:53;;;;;;;22.73;15.68;;;9.40;99.90;;;;;;5020299;28;20022;-86
2023/04/21 06:45:22;;;;;;;20.83;16.80;;;9.50;99.90;;;;;;5022348;28;20089;-86
2023/04/21 06:47:47;;;;;;;18.08;13.95;;;9.50;99.90;;;;;;5021426;28;20032;-86
2023/04/21 06:50:13;;;;;;;20.63;14.82;;;9.60;99.90;;;;;;5020102;28;20038;-86
2023/04/21 06:52:39;;;;;;;19.30;15.07;;;9.70;99.90;;;;;;5021544;28;20038;-87
2023/04/21 06:55:08;;;;;;;18.40;13.32;;;9.70;99.90;;;;;;5022852;28;20033;-86
2023/04/21 06:57:43;;;;;;;17.70;13.73;;;9.70;99.90;;;;;;5016838;28;21216;-87
2023/04/21 07:00:09;;;;;;;17.52;13.70;;;9.80;99.90;;;;;;5019717;28;20028;-87
2023/04/21 07:02:37;;;;;;;19.00;14.07;;;9.80;99.90;;;;;;5017075;28;20089;-86
2023/04/21 07:05:03;;;;;;;18.75;13.75;;;9.90;99.90;;;;;;5016787;28;20030;-87
2023/04/21 07:07:29;;;;;;;18.65;14.15;;;9.90;99.90;;;;;;5016037;28;20037;-86
2023/04/21 07:09:57;;;;;;;19.40;14.55;;;9.80;99.90;;;;;;5017247;28;20072;-86
2023/04/21 07:12:23;;;;;;;22.38;16.35;;;9.80;99.90;;;;;;5017357;28;20040;-88
2023/04/21 07:14:53;;;;;;;23.52;18.35;;;9.70;99.90;;;;;;5017732;28;20030;-86
2023/04/21 07:17:27;;;;;;;20.88;15.48;;;9.70;99.90;;;;;;5028635;28;20113;-87
2023/04/21 07:19:53;;;;;;;19.13;14.85;;;9.70;99.90;;;;;;5021243;28;20025;-87
2023/04/21 07:22:19;;;;;;;19.23;14.57;;;9.70;99.90;;;;;;5018956;28;20036;-86
2023/04/21 07:24:46;;;;;;;21.98;16.17;;;9.80;99.90;;;;;;5020378;28;20436;-87
2023/04/21 07:27:13;;;;;;;21.17;14.77;;;9.80;99.90;;;;;;5019781;28;20030;-86
2023/04/21 07:29:41;;;;;;;18.60;14.85;;;9.80;99.90;;;;;;5017821;28;20034;-87
2023/04/21 07:32:11;;;;;;;19.00;13.23;;;9.80;99.90;;;;;;5020704;28;20117;-87
2023/04/21 07:34:38;;;;;;;17.92;13.80;;;9.80;99.90;;;;;;5014514;28;20047;-87
2023/04/21 07:37:04;;;;;;;17.92;14.52;;;9.80;99.90;;;;;;5015313;28;20034;-87
2023/04/21 07:39:30;;;;;;;17.85;13.98;;;9.90;99.90;;;;;;5015818;28;20033;-87
2023/04/21 07:41:56;;;;;;;18.85;14.52;;;9.90;99.90;;;;;;5021908;28;20044;-87
2023/04/21 07:44:22;;;;;;;19.20;14.15;;;9.90;99.90;;;;;;5017250;28;20087;-86
2023/04/21 07:46:48;;;;;;;19.25;13.55;;;10.00;99.90;;;;;;5020365;28;21468;-86
2023/04/21 07:49:19;;;;;;;18.25;14.52;;;10.10;99.90;;;;;;5021231;28;20032;-87
2023/04/21 07:51:45;;;;;;;19.00;15.05;;;10.20;99.90;;;;;;5017878;28;20032;-86
2023/04/21 07:54:15;;;;;;;19.58;13.68;;;10.30;99.90;;;;;;5020596;28;20033;-86
2023/04/21 07:56:40;;;;;;;17.92;13.70;;;10.40;99.90;;;;;;5015190;28;20116;-86
2023/04/21 07:59:08;;;;;;;17.88;13.38;;;10.60;99.90;;;;;;5016756;28;20099;-86
2023/04/21 08:01:36;;;;;;;19.35;14.02;;;10.70;99.90;;;;;;5010274;28;20036;-87
2023/04/21 08:04:05;;;;;;;21.27;15.18;;;10.90;99.90;;;;;;5015342;28;20432;-87
2023/04/21 08:06:32;;;;;;;20.88;14.98;;;11.10;99.90;;;;;;5015224;28;20061;-87
2023/04/21 08:09:03;;;;;;;19.58;15.55;;;11.20;99.90;;;;;;5015929;28;20086;-87
2023/04/21 08:11:30;;;;;;;20.75;15.77;;;11.30;99.90;;;;;;5015002;28;20033;-85
2023/04/21 08:13:56;;;;;;;19.08;15.52;;;11.60;99.90;;;;;;5016113;28;20080;-85
2023/04/21 08:16:22;;;;;;;19.17;15.35;;;11.80;99.90;;;;;;5017075;28;20033;-84
2023/04/21 08:18:48;;;;;;;19.15;15.52;;;12.00;99.90;;;;;;5014762;28;20041;-85
2023/04/21 08:21:14;;;;;;;21.08;16.90;;;12.10;99.90;;;;;;5023135;28;20045;-85
2023/04/21 08:23:42;;;;;;;21.55;17.65;;;12.20;99.90;;;;;;5019252;28;20054;-85
2023/04/21 08:26:08;;;;;;;24.05;17.33;;;12.20;99.90;;;;;;5020844;28;20327;-84
2023/04/21 08:28:34;;;;;;;21.38;15.95;;;12.30;99.90;;;;;;5017066;28;20043;-85
2023/04/21 08:31:00;;;;;;;21.15;17.13;;;12.40;99.90;;;;;;5018507;28;20490;-86
2023/04/21 08:33:26;;;;;;;21.80;17.27;;;12.40;99.90;;;;;;5018434;28;20434;-85
2023/04/21 08:35:52;;;;;;;21.85;17.23;;;12.40;99.90;;;;;;5016066;28;20026;-85
2023/04/21 08:38:19;;;;;;;18.20;15.38;;;12.40;99.90;;;;;;5015660;28;20061;-85
2023/04/21 08:40:45;;;;;;;19.92;16.70;;;12.40;99.90;;;;;;5013523;28;20458;-85
2023/04/21 08:43:14;;;;;;;20.10;15.57;;;12.30;99.90;;;;;;5015297;28;20025;-84
2023/04/21 08:45:42;;;;;;;20.15;15.73;;;12.30;99.90;;;;;;5016532;28;20775;-85
2023/04/21 08:48:15;;;;;;;21.02;17.15;;;12.30;99.90;;;;;;5015327;28;20041;-85
2023/04/21 08:50:43;;;;;;;20.70;16.50;;;12.30;99.90;;;;;;5018936;28;20037;-86
2023/04/21 08:53:09;;;;;;;20.70;17.05;;;12.30;99.90;;;;;;5019178;28;20403;-85
2023/04/21 08:55:36;;;;;;;23.75;18.17;;;12.40;99.90;;;;;;5013032;28;20053;-85
2023/04/21 08:58:09;;;;;;;21.92;17.90;;;12.50;99.90;;;;;;5014720;28;20584;-85
2023/04/21 09:00:35;;;;;;;22.35;17.70;;;12.50;99.90;;;;;;5013488;28;20116;-85
2023/04/21 09:03:02;;;;;;;22.02;18.23;;;12.50;99.90;;;;;;5015624;28;20116;-85
2023/04/21 09:05:36;;;;;;;21.17;16.75;;;12.60;99.90;;;;;;5016594;28;20038;-85
2023/04/21 09:08:11;;;;;;;;;;;12.70;99.90;;;;;;5019131;28;20045;-86
2023/04/21 09:10:53;;;;;;;23.77;18.48;;;12.70;99.90;;;;;;5012918;28;19913;-86
2023/04/21 09:13:20;;;;;;;22.70;18.33;;;12.70;99.90;;;;;;5019885;28;20029;-86
2023/04/21 09:15:50;;;;;;;19.88;16.13;;;12.70;99.90;;;;;;5014236;28;20037;-86
2023/04/21 09:18:21;;;;;;;20.77;17.85;;;12.70;99.90;;;;;;5016493;28;20033;-86
2023/04/21 09:20:49;;;;;;;21.33;16.08;;;12.80;99.90;;;;;;5015414;28;20025;-85
2023/04/21 09:23:20;;;;;;;19.35;16.08;;;12.90;99.90;;;;;;5013594;28;20061;-87
2023/04/21 09:25:48;;;;;;;18.95;15.23;;;13.00;99.90;;;;;;5007094;28;20042;-87
2023/04/21 09:28:16;;;;;;;22.13;17.75;;;13.10;99.90;;;;;;5015637;28;20048;-86
2023/04/21 09:30:42;;;;;;;21.20;16.15;;;13.20;99.90;;;;;;5015479;28;20120;-86
2023/04/21 09:33:19;;;;;;;20.38;16.40;;;13.30;99.90;;;;;;5016810;28;20058;-86
2023/04/21 09:35:46;;;;;;;19.83;16.20;;;13.30;99.90;;;;;;5016202;28;20094;-86
2023/04/21 09:38:12;;;;;;;19.90;15.90;;;13.30;99.90;;;;;;5014869;28;20360;-86
2023/04/21 09:40:39;;;;;;;17.60;14.98;;;13.40;99.90;;;;;;5013758;28;20499;-87
2023/04/21 09:43:08;;;;;;;20.05;16.52;;;13.40;99.90;;;;;;5018447;28;20127;-86
2023/04/21 09:45:35;;;;;;;18.65;16.08;;;13.40;99.90;;;;;;5014881;28;20033;-86
2023/04/21 09:48:02;;;;;;;20.30;16.20;;;13.40;99.90;;;;;;5019106;28;20423;-87
2023/04/21 09:50:29;;;;;;;20.60;16.50;;;13.50;99.90;;;;;;5006830;28;20041;-86
2023/04/21 09:52:56;;;;;;;20.27;15.32;;;13.60;99.90;;;;;;5014698;28;20061;-88
2023/04/21 09:55:26;;;;;;;17.38;14.70;;;13.60;99.90;;;;;;5015654;28;20037;-87
2023/04/21 09:57:58;;;;;;;16.73;14.60;;;13.70;99.90;;;;;;5013633;28;20036;-86
2023/04/21 10:00:30;;;;;;;17.20;14.88;;;14.00;99.90;;;;;;5013248;28;20049;-86
2023/04/21 10:03:03;;;;;;;17.90;15.05;;;14.10;99.90;;;;;;5016204;28;20022;-87
2023/04/21 10:05:30;;;;;;;;;;;14.30;99.90;;;;;;5014922;28;20136;-86
2023/04/21 10:07:57;;;;;;;19.70;15.75;;;14.90;99.90;;;;;;5016956;28;19923;-86
2023/04/21 10:10:26;;;;;;;18.05;14.80;;;15.00;99.90;;;;;;5018197;28;20042;-86
2023/04/21 10:12:52;;;;;;;19.70;15.43;;;14.90;99.90;;;;;;5017709;28;20032;-87
2023/04/21 10:15:34;;;;;;;17.60;14.45;;;14.90;99.90;;;;;;5020340;28;20466;-87
2023/04/21 10:18:27;;;;;;;17.80;14.85;;;15.30;99.90;;;;;;5019226;28;20080;-87
2023/04/21 10:21:20;;;;;;;21.02;15.73;;;15.20;99.90;;;;;;5018664;28;20542;-86
2023/04/21 10:23:52;;;;;;;17.33;14.82;;;15.20;99.90;;;;;;5016356;28;20125;-87
2023/04/21 10:26:37;;;;;;;17.02;14.02;;;15.10;99.90;;;;;;5015360;28;20026;-86
2023/04/21 10:29:03;;;;;;;18.25;14.90;;;14.90;99.90;;;;;;5016086;28;20029;-86
2023/04/21 10:31:50;;;;;;;17.55;15.02;;;14.80;99.90;;;;;;5017488;28;20120;-86
2023/04/21 10:34:21;;;;;;;17.55;15.05;;;14.90;99.90;;;;;;5034296;28;20390;-88
2023/04/21 10:37:18;;;;;;;16.63;14.63;;;15.10;99.90;;;;;;5017728;28;20146;-87
2023/04/21 10:39:53;;;;;;;16.00;13.38;;;15.30;99.90;;;;;;5016387;28;20116;-86
2023/04/21 10:42:35;;;;;;;16.80;13.40;;;15.10;99.90;;;;;;5017025;28;20039;-87
2023/04/21 10:45:08;;;;;;;15.95;13.30;;;15.10;99.90;;;;;;5017803;28;20041;-87
2023/04/21 10:47:44;;;;;;;17.67;14.18;;;15.10;99.90;;;;;;5020993;28;20050;-87
2023/04/21 10:50:20;;;;;;;17.35;14.15;;;15.20;99.90;;;;;;5020917;28;20419;-86
2023/04/21 10:52:51;;;;;;;16.40;13.45;;;15.10;99.90;;;;;;5018499;28;20030;-86
2023/04/21 10:55:17;;;;;;;16.48;14.00;;;14.90;99.90;;;;;;5018752;28;20034;-86
2023/04/21 10:57:44;;;;;;;18.27;15.35;;;15.10;99.90;;;;;;5017409;28;20034;-86
2023/04/21 11:00:13;;;;;;;15.80;13.82;;;15.10;99.90;;;;;;5018488;28;20034;-86
2023/04/21 11:02:39;;;;;;;17.23;14.15;;;15.30;99.90;;;;;;5018412;28;20075;-86
2023/04/21 11:05:10;;;;;;;16.33;13.68;;;15.60;99.90;;;;;;5020223;28;20061;-86
2023/04/21 11:07:36;;;;;;;15.18;13.02;;;15.50;99.90;;;;;;5016486;28;20034;-85
2023/04/21 11:10:06;;;;;;;15.57;12.20;;;15.30;99.90;;;;;;5022904;28;20444;-85
2023/04/21 11:12:41;;;;;;;16.10;13.48;;;15.10;99.90;;;;;;5015555;28;20018;-86
2023/04/21 11:15:10;;;;;;;16.80;14.30;;;14.90;99.90;;;;;;5023809;28;20037;-87
2023/04/21 11:17:42;;;;;;;16.20;13.73;;;14.80;99.90;;;;;;5016983;28;20761;-86
2023/04/21 11:20:08;;;;;;;16.85;13.68;;;14.70;99.90;;;;;;5017213;28;20485;-86
2023/04/21 11:22:35;;;;;;;15.68;13.25;;;14.80;99.90;;;;;;5019814;28;20054;-87
2023/04/21 11:25:02;;;;;;;14.70;12.70;;;15.10;99.90;;;;;;5017432;28;20129;-86
2023/04/21 11:27:29;;;;;;;16.67;14.13;;;15.60;99.90;;;;;;5018719;28;20029;-86
2023/04/21 11:29:56;;;;;;;18.80;14.57;;;16.20;99.90;;;;;;5017104;28;20022;-84
2023/04/21 11:32:24;;;;;;;16.00;12.95;;;16.50;99.90;;;;;;5015750;28;20037;-87
2023/04/21 11:34:51;;;;;;;17.38;14.70;;;16.60;99.90;;;;;;5017463;28;20029;-86
2023/04/21 11:37:26;;;;;;;13.65;12.18;;;16.80;99.90;;;;;;5023368;28;20512;-86
2023/04/21 11:39:59;;;;;;;15.60;13.32;;;16.80;99.90;;;;;;5025530;28;20464;-86
2023/04/21 11:42:27;;;;;;;15.80;12.35;;;17.20;99.90;;;;;;5018978;28;20017;-87
2023/04/21 11:44:59;;;;;;;14.50;12.50;;;17.30;99.90;;;;;;5022498;28;20033;-86
2023/04/21 11:47:26;;;;;;;13.85;11.30;;;17.50;99.90;;;;;;5016898;28;20108;-86
2023/04/21 11:49:57;;;;;;;16.15;13.45;;;17.70;99.90;;;;;;5021089;28;20458;-87
2023/04/21 11:52:28;;;;;;;14.85;12.55;;;17.50;99.90;;;;;;5020054;28;20033;-86
2023/04/21 11:54:55;;;;;;;14.50;11.82;;;17.30;99.90;;;;;;5017596;28;20049;-86
2023/04/21 11:57:28;;;;;;;14.77;11.80;;;17.30;99.90;;;;;;5014224;28;20103;-87
2023/04/21 12:00:00;;;;;;;14.10;11.65;;;17.10;99.90;;;;;;5027414;28;20100;-87
2023/04/21 12:02:28;;;;;;;15.23;11.80;;;16.90;99.90;;;;;;5017801;28;20030;-86
2023/04/21 12:05:03;;;;;;;14.88;12.25;;;16.80;99.90;;;;;;5019843;28;20037;-85
2023/04/21 12:07:30;;;;;;;17.92;14.65;;;17.00;99.90;;;;;;5019001;28;20421;-85
2023/04/21 12:09:58;;;;;;;14.48;11.77;;;17.50;99.90;;;;;;5015960;28;20058;-85
2023/04/21 12:12:24;;;;;;;15.23;12.93;;;18.00;99.90;;;;;;5018620;28;20018;-84
2023/04/21 12:14:51;;;;;;;15.68;12.85;;;18.50;99.90;;;;;;5014673;28;20072;-87
2023/04/21 12:17:21;;;;;;;14.65;11.98;;;18.20;99.90;;;;;;5013361;28;20030;-88
2023/04/21 12:19:46;;;;;;;16.75;13.15;;;17.80;99.90;;;;;;5013498;28;20034;-87
2023/04/21 12:22:14;;;;;;;17.90;15.15;;;17.30;99.90;;;;;;5016734;28;20043;-87
2023/04/21 12:24:40;;;;;;;14.27;12.52;;;16.90;99.90;;;;;;5017459;28;20060;-86
2023/04/21 12:27:10;;;;;;;15.68;12.38;;;16.60;99.90;;;;;;5014945;28;20542;-85
2023/04/21 12:29:39;;;;;;;17.45;13.88;;;16.40;99.90;;;;;;5017967;28;20136;-86
2023/04/21 12:32:07;;;;;;;15.80;12.40;;;16.20;99.90;;;;;;4997319;28;20037;-86
2023/04/21 12:34:37;;;;;;;15.35;13.23;;;16.20;99.90;;;;;;5012550;28;20045;-86
2023/04/21 12:37:03;;;;;;;15.90;12.35;;;16.30;99.90;;;;;;5016639;28;20041;-86
2023/04/21 12:39:29;;;;;;;16.90;12.63;;;16.40;99.90;;;;;;5015345;28;20036;-86